Time;durP1;ratioP1;P1;durP2;ratioP2;P2;SDS_P1;SDS_P2;PMS_P1;PMS_P2;Temp;Humidity;BMP_temperature;BMP_pressure;BME280_temperature;BME280_humidity;BME280_pressure;Samples;Min_cycle;Max_cycle;Signal;HPM_P1;HPM_P2
2024/03/21 00:01:46;;;;;;;;;;;;;;;;;;4962448;28;19964;-81
2024/03/21 00:04:13;;;;;;;;;;;;;;;;;;4971529;28;19930;-81
2024/03/21 00:06:40;;;;;;;;;;;;;;;;;;4972407;28;19930;-82
2024/03/21 00:09:08;;;;;;;;;;;;;;;;;;4960191;28;19934;-81
2024/03/21 00:11:34;;;;;;;;;;;;;;;;;;4965596;28;19980;-81
2024/03/21 00:14:01;;;;;;;;;;;;;;;;;;4970425;28;19930;-80
2024/03/21 00:16:27;;;;;;;;;;;;;;;;;;4971451;28;19945;-78
2024/03/21 00:18:54;;;;;;;;;;;;;;;;;;4964420;28;19937;-79
2024/03/21 00:21:20;;;;;;;;;;;;;;;;;;4971221;28;19930;-79
2024/03/21 00:23:47;;;;;;;;;;;;;;;;;;4968520;28;19942;-78
2024/03/21 00:26:14;;;;;;;;;;;;;;;;;;4969537;28;19934;-78
2024/03/21 00:28:41;;;;;;;;;;;;;;;;;;4969035;28;19938;-78
2024/03/21 00:31:07;;;;;;;;;;;;;;;;;;4969975;28;19937;-77
2024/03/21 00:33:34;;;;;;;;;;;;;;;;;;4970544;28;19941;-78
2024/03/21 00:36:00;;;;;;;;;;;;;;;;;;4963351;28;19976;-77
2024/03/21 00:38:27;;;;;;;;;;;;;;;;;;4970022;28;20401;-77
2024/03/21 00:40:53;;;;;;;;;;;;;;;;;;4970045;28;20350;-78
2024/03/21 00:43:22;;;;;;;;;;;;;;;;;;4969158;28;19934;-78
2024/03/21 00:45:48;;;;;;;;;;;;;;;;;;4969872;28;19937;-80
2024/03/21 00:48:15;;;;;;;;;;;;;;;;;;4989064;28;19952;-79
2024/03/21 00:50:41;;;;;;;;;;;;;;;;;;4964817;28;19926;-80
2024/03/21 00:53:08;;;;;;;;;;;;;;;;;;4979805;28;19985;-80
2024/03/21 00:55:34;;;;;;;;;;;;;;;;;;5004984;28;19999;-80
2024/03/21 00:58:01;;;;;;;;;;;;;;;;;;4970441;28;20005;-79
2024/03/21 01:00:28;;;;;;;;;;;;;;;;;;4958877;28;19927;-80
2024/03/21 01:02:55;;;;;;;;;;;;;;;;;;4966165;28;19934;-79
2024/03/21 01:05:21;;;;;;;;;;;;;;;;;;4970814;28;20026;-79
2024/03/21 01:07:48;;;;;;;;;;;;;;;;;;4972837;28;19930;-79
2024/03/21 01:10:14;;;;;;;;;;;;;;;;;;4972152;28;19969;-79
2024/03/21 01:12:43;;;;;;;;;;;;;;;;;;4999461;28;19941;-80
2024/03/21 01:15:09;;;;;;;;;;;;;;;;;;4970193;28;20016;-79
2024/03/21 01:17:36;;;;;;;;;;;;;;;;;;4960942;28;19936;-80
2024/03/21 01:20:03;;;;;;;;;;;;;;;;;;4970247;28;19930;-80
2024/03/21 01:22:30;;;;;;;;;;;;;;;;;;4969712;28;19941;-80
2024/03/21 01:24:56;;;;;;;;;;;;;;;;;;4969866;28;19930;-79
2024/03/21 01:27:23;;;;;;;;;;;;;;;;;;4959056;28;19930;-79
2024/03/21 01:29:51;;;;;;;;;;;;;;;;;;4968846;28;19926;-79
2024/03/21 01:32:18;;;;;;;;;;;;;;;;;;4969722;28;19930;-79
2024/03/21 01:34:44;;;;;;;;;;;;;;;;;;4961385;28;20446;-81
2024/03/21 01:37:11;;;;;;;;;;;;;;;;;;4958166;28;19926;-81
2024/03/21 01:39:37;;;;;;;;;;;;;;;;;;4971331;28;19972;-81
2024/03/21 01:42:05;;;;;;;;;;;;;;;;;;4970516;28;20381;-79
2024/03/21 01:44:31;;;;;;;;;;;;;;;;;;4967091;28;19931;-80
2024/03/21 01:46:58;;;;;;;;;;;;;;;;;;4955463;28;19926;-80
2024/03/21 01:49:24;;;;;;;;;;;;;;;;;;4963585;28;21414;-80
2024/03/21 01:51:51;;;;;;;;;;;;;;;;;;4971478;28;20482;-80
2024/03/21 01:54:17;;;;;;;;;;;;;;;;;;4972161;28;19930;-80
2024/03/21 01:56:44;;;;;;;;;;;;;;;;;;4966344;28;19931;-79
2024/03/21 01:59:10;;;;;;;;;;;;;;;;;;4970026;28;20027;-81
2024/03/21 02:01:37;;;;;;;;;;;;;;;;;;4969684;28;19935;-80
2024/03/21 02:04:03;;;;;;;;;;;;;;;;;;4970424;28;19930;-80
2024/03/21 02:06:30;;;;;;;;;;;;;;;;;;4969118;28;20401;-80
2024/03/21 02:08:58;;;;;;;;;;;;;;;;;;4969980;28;19968;-81
2024/03/21 02:11:25;;;;;;;;;;;;;;;;;;4969795;28;20065;-81
2024/03/21 02:13:51;;;;;;;;;;;;;;;;;;4968624;28;19930;-80
2024/03/21 02:16:18;;;;;;;;;;;;;;;;;;4968864;28;19937;-80
2024/03/21 02:18:44;;;;;;;;;;;;;;;;;;4969275;28;19945;-80
2024/03/21 02:23:52;;;;;;;;;;;;;;;;;;4967893;28;19926;-77
2024/03/21 02:26:18;;;;;;;;;;;;;;;;;;4958415;28;20401;-76
2024/03/21 02:28:46;;;;;;;;;;;;;;;;;;4966821;28;20663;-77
2024/03/21 02:31:12;;;;;;;;;;;;;;;;;;4976627;28;20013;-78
2024/03/21 02:33:39;;;;;;;;;;;;;;;;;;4976291;28;19930;-77
2024/03/21 02:36:05;;;;;;;;;;;;;;;;;;4969104;28;19930;-79
2024/03/21 02:38:32;;;;;;;;;;;;;;;;;;4967875;28;19930;-78
2024/03/21 02:40:58;;;;;;;;;;;;;;;;;;4962327;28;20025;-78
2024/03/21 02:43:25;;;;;;;;;;;;;;;;;;4967172;28;19930;-78
2024/03/21 02:45:51;;;;;;;;;;;;;;;;;;4967525;28;19930;-78
2024/03/21 02:48:18;;;;;;;;;;;;;;;;;;4967409;28;19926;-78
2024/03/21 02:50:44;;;;;;;;;;;;;;;;;;4965004;28;19930;-78
2024/03/21 02:53:11;;;;;;;;;;;;;;;;;;4971370;28;20343;-78
2024/03/21 02:55:37;;;;;;;;;;;;;;;;;;4970904;28;19930;-78
2024/03/21 02:58:04;;;;;;;;;;;;;;;;;;4968228;28;20305;-79
2024/03/21 03:00:31;;;;;;;;;;;;;;;;;;4969494;28;20458;-78
2024/03/21 03:02:58;;;;;;;;;;;;;;;;;;4962659;28;19938;-78
2024/03/21 03:05:24;;;;;;;;;;;;;;;;;;4968092;28;20329;-78
2024/03/21 03:07:51;;;;;;;;;;;;;;;;;;4970198;28;19930;-78
2024/03/21 03:10:17;;;;;;;;;;;;;;;;;;4970586;28;19984;-77
2024/03/21 03:12:44;;;;;;;;;;;;;;;;;;4970850;28;19952;-78
2024/03/21 03:15:10;;;;;;;;;;;;;;;;;;4969015;28;20503;-78
2024/03/21 03:17:37;;;;;;;;;;;;;;;;;;4974280;28;19929;-78
2024/03/21 03:20:03;;;;;;;;;;;;;;;;;;4970893;28;19957;-77
2024/03/21 03:22:30;;;;;;;;;;;;;;;;;;4966245;28;19934;-78
2024/03/21 03:24:56;;;;;;;;;;;;;;;;;;4971512;28;19930;-78
2024/03/21 03:27:23;;;;;;;;;;;;;;;;;;4971850;28;20408;-80
2024/03/21 03:29:49;;;;;;;;;;;;;;;;;;4971954;28;20003;-78
2024/03/21 03:32:16;;;;;;;;;;;;;;;;;;4968247;28;20025;-77
2024/03/21 03:37:42;;;;;;;;;;;;;;;;;;4930550;29;19931;-78
2024/03/21 03:40:10;;;;;;;;;;;;;;;;;;4929051;29;20061;-77
2024/03/21 03:42:37;;;;;;;;;;;;;;;;;;4924299;29;19930;-78
2024/03/21 03:45:04;;;;;;;;;;;;;;;;;;4930422;29;19931;-77
2024/03/21 03:47:34;;;;;;;;;;;;;;;;;;4930173;29;19935;-77
2024/03/21 03:50:01;;;;;;;;;;;;;;;;;;4922808;29;19930;-77
2024/03/21 03:52:27;;;;;;;;;;;;;;;;;;4924650;28;19958;-77
2024/03/21 03:54:54;;;;;;;;;;;;;;;;;;4929984;29;19974;-77
2024/03/21 03:57:20;;;;;;;;;;;;;;;;;;4930101;29;20025;-78
2024/03/21 03:59:47;;;;;;;;;;;;;;;;;;4929406;29;19978;-78
2024/03/21 04:02:14;;;;;;;;;;;;;;;;;;4933422;28;20329;-77
2024/03/21 04:04:41;;;;;;;;;;;;;;;;;;4929445;28;19989;-78
2024/03/21 04:07:07;;;;;;;;;;;;;;;;;;4918601;29;20311;-77
2024/03/21 04:09:34;;;;;;;;;;;;;;;;;;4966882;28;20674;-78
2024/03/21 04:12:00;;;;;;;;;;;;;;;;;;4970622;28;20409;-77
2024/03/21 04:14:27;;;;;;;;;;;;;;;;;;4969338;28;19930;-77
2024/03/21 04:16:53;;;;;;;;;;;;;;;;;;4964292;28;19973;-77
2024/03/21 04:19:20;;;;;;;;;;;;;;;;;;4970556;28;19926;-77
2024/03/21 04:21:46;;;;;;;;;;;;;;;;;;4963610;28;19930;-79
2024/03/21 04:24:13;;;;;;;;;;;;;;;;;;4972479;28;19936;-79
2024/03/21 04:26:41;;;;;;;;;;;;;;;;;;4974776;28;19926;-78
2024/03/21 04:29:08;;;;;;;;;;;;;;;;;;4971243;28;19934;-78
2024/03/21 04:31:36;;;;;;;;;;;;;;;;;;4970159;28;22517;-78
2024/03/21 04:34:03;;;;;;;;;;;;;;;;;;4971650;28;19930;-79
2024/03/21 04:36:29;;;;;;;;;;;;;;;;;;4971044;28;19926;-78
2024/03/21 04:38:56;;;;;;;;;;;;;;;;;;4969406;28;19930;-78
2024/03/21 04:41:23;;;;;;;;;;;;;;;;;;4969770;28;19934;-78
2024/03/21 04:43:50;;;;;;;;;;;;;;;;;;4970123;28;19930;-78
2024/03/21 04:46:17;;;;;;;;;;;;;;;;;;4971054;28;19933;-79
2024/03/21 04:48:44;;;;;;;;;;;;;;;;;;4970968;28;19930;-79
2024/03/21 04:51:10;;;;;;;;;;;;;;;;;;4971225;28;19976;-79
2024/03/21 04:53:37;;;;;;;;;;;;;;;;;;4971801;28;19958;-79
2024/03/21 04:56:03;;;;;;;;;;;;;;;;;;4971270;28;19930;-80
2024/03/21 04:58:30;;;;;;;;;;;;;;;;;;4971064;28;19926;-80
2024/03/21 05:00:56;;;;;;;;;;;;;;;;;;4974207;28;19927;-79
2024/03/21 05:03:23;;;;;;;;;;;;;;;;;;4970803;28;19941;-79
2024/03/21 05:05:49;;;;;;;;;;;;;;;;;;4969538;28;19926;-79
2024/03/21 05:08:16;;;;;;;;;;;;;;;;;;4968375;28;20411;-80
2024/03/21 05:10:42;;;;;;;;;;;;;;;;;;4970076;28;19969;-78
2024/03/21 05:13:09;;;;;;;;;;;;;;;;;;4970699;28;19934;-81
2024/03/21 05:15:35;;;;;;;;;;;;;;;;;;4968066;28;19930;-78
2024/03/21 05:18:02;;;;;;;;;;;;;;;;;;4971457;28;19938;-78
2024/03/21 05:20:28;;;;;;;;;;;;;;;;;;4969989;28;19976;-79
2024/03/21 05:22:55;;;;;;;;;;;;;;;;;;4969998;28;19988;-78
2024/03/21 05:25:21;;;;;;;;;;;;;;;;;;4972090;28;19965;-78
2024/03/21 05:27:48;;;;;;;;;;;;;;;;;;4972122;28;19930;-79
2024/03/21 05:30:15;;;;;;;;;;;;;;;;;;4969334;28;19930;-78
2024/03/21 05:32:42;;;;;;;;;;;;;;;;;;4966905;28;19930;-76
2024/03/21 05:35:08;;;;;;;;;;;;;;;;;;4969095;28;20454;-77
2024/03/21 05:37:35;;;;;;;;;;;;;;;;;;4958783;28;19975;-78
2024/03/21 05:40:01;;;;;;;;;;;;;;;;;;4968649;28;19926;-78
2024/03/21 05:42:28;;;;;;;;;;;;;;;;;;4969192;28;19930;-79
2024/03/21 05:44:54;;;;;;;;;;;;;;;;;;4970171;28;19930;-78
2024/03/21 05:47:21;;;;;;;;;;;;;;;;;;4969969;28;19930;-78
2024/03/21 05:49:47;;;;;;;;;;;;;;;;;;4961586;28;19969;-78
2024/03/21 05:52:14;;;;;;;;;;;;;;;;;;4969376;28;20404;-78
2024/03/21 05:54:40;;;;;;;;;;;;;;;;;;4969317;28;19930;-77
2024/03/21 05:57:07;;;;;;;;;;;;;;;;;;4969520;28;19926;-78
2024/03/21 05:59:33;;;;;;;;;;;;;;;;;;4970971;28;20455;-78
2024/03/21 06:02:00;;;;;;;;;;;;;;;;;;4970617;28;19981;-79
2024/03/21 06:04:26;;;;;;;;;;;;;;;;;;4960186;28;19965;-78
2024/03/21 06:06:53;;;;;;;;;;;;;;;;;;4955463;28;19927;-79
2024/03/21 06:09:21;;;;;;;;;;;;;;;;;;4964369;28;20040;-78
2024/03/21 06:11:49;;;;;;;;;;;;;;;;;;4968182;28;20029;-79
2024/03/21 06:14:15;;;;;;;;;;;;;;;;;;4970627;28;20003;-79
2024/03/21 06:16:42;;;;;;;;;;;;;;;;;;4970646;28;20351;-78
2024/03/21 06:19:08;;;;;;;;;;;;;;;;;;4969478;28;19930;-78
2024/03/21 06:21:35;;;;;;;;;;;;;;;;;;4963719;28;19938;-79
2024/03/21 06:24:01;;;;;;;;;;;;;;;;;;4965840;28;20007;-78
2024/03/21 06:26:28;;;;;;;;;;;;;;;;;;4970628;28;19938;-78
2024/03/21 06:28:54;;;;;;;;;;;;;;;;;;4973759;28;19965;-78
2024/03/21 06:31:21;;;;;;;;;;;;;;;;;;4965443;28;20348;-78
2024/03/21 06:33:47;;;;;;;;;;;;;;;;;;4965297;28;19931;-80
2024/03/21 06:36:14;;;;;;;;;;;;;;;;;;4964955;28;20002;-88
2024/03/21 06:38:40;;;;;;;;;;;;;;;;;;4968279;28;20301;-87
2024/03/21 06:41:08;;;;;;;;;;;;;;;;;;4971663;28;20378;-88
2024/03/21 06:43:34;;;;;;;;;;;;;;;;;;4967068;28;20404;-87
2024/03/21 06:46:01;;;;;;;;;;;;;;;;;;4967714;28;19930;-86
2024/03/21 06:48:27;;;;;;;;;;;;;;;;;;4970157;28;19930;-87
2024/03/21 06:50:54;;;;;;;;;;;;;;;;;;4982221;28;19927;-87
2024/03/21 06:53:22;;;;;;;;;;;;;;;;;;4976840;28;20003;-84
2024/03/21 06:55:49;;;;;;;;;;;;;;;;;;4974985;28;19930;-78
2024/03/21 06:58:16;;;;;;;;;;;;;;;;;;4966303;28;19934;-77
2024/03/21 07:00:53;;;;;;;;;;;;;;;;;;4976980;28;19965;-79
2024/03/21 07:03:19;;;;;;;;;;;;;;;;;;4972422;28;19988;-78
2024/03/21 07:05:46;;;;;;;;;;;;;;;;;;4960635;28;20401;-78
2024/03/21 07:08:12;;;;;;;;;;;;;;;;;;4968254;28;20372;-79
2024/03/21 07:10:39;;;;;;;;;;;;;;;;;;4964177;28;20403;-79
2024/03/21 07:13:06;;;;;;;;;;;;;;;;;;4962875;28;20354;-80
2024/03/21 07:15:33;;;;;;;;;;;;;;;;;;4974580;28;19934;-72
2024/03/21 07:17:59;;;;;;;;;;;;;;;;;;4967855;28;19965;-77
2024/03/21 07:20:26;;;;;;;;;;;;;;;;;;4969349;28;20293;-77
2024/03/21 07:22:52;;;;;;;;;;;;;;;;;;4966851;28;20415;-78
2024/03/21 07:25:19;;;;;;;;;;;;;;;;;;4964044;28;20417;-78
2024/03/21 07:27:46;;;;;;;;;;;;;;;;;;4960823;28;20409;-78
2024/03/21 07:30:15;;;;;;;;;;;;;;;;;;4982049;28;19937;-79
2024/03/21 07:32:42;;;;;;;;;;;;;;;;;;4961561;28;19931;-79
2024/03/21 07:35:09;;;;;;;;;;;;;;;;;;4967383;28;19928;-77
2024/03/21 07:37:35;;;;;;;;;;;;;;;;;;4961328;28;19930;-79
2024/03/21 07:40:05;;;;;;;;;;;;;;;;;;4965212;28;19930;-80
2024/03/21 07:42:31;;;;;;;;;;;;;;;;;;4966155;28;19930;-78
2024/03/21 07:45:00;;;;;;;;;;;;;;;;;;4962240;28;19950;-80
2024/03/21 07:47:26;;;;;;;;;;;;;;;;;;4957570;28;19937;-80
2024/03/21 07:49:54;;;;;;;;;;;;;;;;;;4959158;28;20344;-79
2024/03/21 07:52:20;;;;;;;;;;;;;;;;;;4963148;28;20565;-78
2024/03/21 07:54:47;;;;;;;;;;;;;;;;;;4964487;28;20471;-80
2024/03/21 07:57:14;;;;;;;;;;;;;;;;;;4966765;28;19930;-77
2024/03/21 07:59:41;;;;;;;;;;;;;;;;;;4967004;28;20355;-80
2024/03/21 08:02:07;;;;;;;;;;;;;;;;;;4958052;28;19965;-80
2024/03/21 08:04:34;;;;;;;;;;;;;;;;;;4952134;28;20019;-77
2024/03/21 08:07:00;;;;;;;;;;;;;;;;;;4962130;28;19936;-77
2024/03/21 08:09:27;;;;;;;;;;;;;;;;;;4969794;28;20707;-76
2024/03/21 08:11:54;;;;;;;;;;;;;;;;;;4955301;28;19962;-78
2024/03/21 08:14:21;;;;;;;;;;;;;;;;;;4969935;28;19989;-78
2024/03/21 08:16:47;;;;;;;;;;;;;;;;;;4971089;28;20023;-78
2024/03/21 08:19:14;;;;;;;;;;;;;;;;;;4966771;28;19989;-75
2024/03/21 08:21:40;;;;;;;;;;;;;;;;;;4964527;28;20470;-76
2024/03/21 08:24:07;;;;;;;;;;;;;;;;;;4963520;28;19935;-77
2024/03/21 08:26:33;;;;;;;;;;;;;;;;;;4955293;28;20026;-76
2024/03/21 08:29:00;;;;;;;;;;;;;;;;;;4968528;28;19930;-77
2024/03/21 08:31:26;;;;;;;;;;;;;;;;;;5014212;28;19971;-76
2024/03/21 08:33:53;;;;;;;;;;;;;;;;;;4977125;28;19987;-76
2024/03/21 08:36:19;;;;;;;;;;;;;;;;;;4955548;28;20000;-76
2024/03/21 08:38:46;;;;;;;;;;;;;;;;;;4960409;28;20339;-76
2024/03/21 08:41:13;;;;;;;;;;;;;;;;;;4962001;28;20033;-74
2024/03/21 08:43:40;;;;;;;;;;;;;;;;;;4961675;28;20017;-76
2024/03/21 08:46:06;;;;;;;;;;;;;;;;;;5001892;28;20374;-76
2024/03/21 08:48:33;;;;;;;;;;;;;;;;;;4967376;28;20309;-76
2024/03/21 08:50:59;;;;;;;;;;;;;;;;;;4977873;28;20349;-75
2024/03/21 08:53:26;;;;;;;;;;;;;;;;;;4958196;28;20389;-75
2024/03/21 08:55:52;;;;;;;;;;;;;;;;;;4957965;28;19930;-75
2024/03/21 08:58:19;;;;;;;;;;;;;;;;;;4968847;28;19972;-76
2024/03/21 09:00:45;;;;;;;;;;;;;;;;;;4965376;28;19930;-74
2024/03/21 09:03:12;;;;;;;;;;;;;;;;;;4965910;28;20467;-76
2024/03/21 09:05:38;;;;;;;;;;;;;;;;;;4966477;28;19930;-76
2024/03/21 09:08:05;;;;;;;;;;;;;;;;;;4965813;28;19930;-76
2024/03/21 09:10:31;;;;;;;;;;;;;;;;;;4950535;28;19984;-74
2024/03/21 09:12:58;;;;;;;;;;;;;;;;;;4951425;28;19934;-73
2024/03/21 09:15:24;;;;;;;;;;;;;;;;;;4961962;28;20328;-76
2024/03/21 09:17:51;;;;;;;;;;;;;;;;;;4969050;28;19987;-75
2024/03/21 09:20:18;;;;;;;;;;;;;;;;;;4969251;28;19956;-73
2024/03/21 09:22:45;;;;;;;;;;;;;;;;;;4969574;28;19930;-73
2024/03/21 09:25:11;;;;;;;;;;;;;;;;;;4967772;28;19934;-73
2024/03/21 09:27:38;;;;;;;;;;;;;;;;;;4957847;28;19953;-76
2024/03/21 09:30:04;;;;;;;;;;;;;;;;;;4959606;28;20355;-74
2024/03/21 09:32:31;;;;;;;;;;;;;;;;;;4953150;28;20317;-74
2024/03/21 09:34:57;;;;;;;;;;;;;;;;;;4972200;28;20025;-74
2024/03/21 09:37:24;;;;;;;;;;;;;;;;;;4963470;28;20733;-77
2024/03/21 09:39:50;;;;;;;;;;;;;;;;;;4965057;28;19937;-76
2024/03/21 09:42:17;;;;;;;;;;;;;;;;;;4960271;28;19937;-77
2024/03/21 09:44:43;;;;;;;;;;;;;;;;;;4960320;28;20029;-78
2024/03/21 09:47:10;;;;;;;;;;;;;;;;;;4954334;28;20025;-77
2024/03/21 09:49:36;;;;;;;;;;;;;;;;;;4958992;28;20029;-76
2024/03/21 09:52:03;;;;;;;;;;;;;;;;;;4959300;28;20037;-80
2024/03/21 09:54:30;;;;;;;;;;;;;;;;;;4957027;28;19930;-78
2024/03/21 09:56:57;;;;;;;;;;;;;;;;;;4968556;28;19930;-80
2024/03/21 09:59:23;;;;;;;;;;;;;;;;;;4959450;28;20374;-78
2024/03/21 10:01:50;;;;;;;;;;;;;;;;;;4966700;28;19992;-79
2024/03/21 10:04:16;;;;;;;;;;;;;;;;;;4955899;28;19988;-77
2024/03/21 10:06:43;;;;;;;;;;;;;;;;;;4966718;28;19930;-78
2024/03/21 10:09:09;;;;;;;;;;;;;;;;;;4966210;28;19937;-77
2024/03/21 10:11:36;;;;;;;;;;;;;;;;;;4954551;28;19938;-78
2024/03/21 10:14:02;;;;;;;;;;;;;;;;;;4982025;28;19961;-78
2024/03/21 10:16:30;;;;;;;;;;;;;;;;;;4966858;28;19974;-76
2024/03/21 10:18:56;;;;;;;;;;;;;;;;;;4965854;28;20395;-77
2024/03/21 10:21:23;;;;;;;;;;;;;;;;;;4965670;28;19941;-77
2024/03/21 10:23:49;;;;;;;;;;;;;;;;;;4962995;28;19934;-72
2024/03/21 10:26:16;;;;;;;;;;;;;;;;;;4959739;28;19969;-73
2024/03/21 10:28:42;;;;;;;;;;;;;;;;;;4967642;28;19964;-72
2024/03/21 10:31:09;;;;;;;;;;;;;;;;;;4959640;28;19937;-73
2024/03/21 10:33:37;;;;;;;;;;;;;;;;;;4966775;28;20393;-73
2024/03/21 10:36:04;;;;;;;;;;;;;;;;;;4962608;28;19946;-72
2024/03/21 10:38:30;;;;;;;;;;;;;;;;;;4963072;28;20021;-72
2024/03/21 10:40:57;;;;;;;;;;;;;;;;;;4962779;28;19997;-75
2024/03/21 10:43:23;;;;;;;;;;;;;;;;;;5033032;28;19932;-76
2024/03/21 10:45:50;;;;;;;;;;;;;;;;;;4982486;28;20423;-75
2024/03/21 10:48:16;;;;;;;;;;;;;;;;;;4966668;28;19938;-75
2024/03/21 10:50:44;;;;;;;;;;;;;;;;;;4959693;28;19930;-75
2024/03/21 10:53:11;;;;;;;;;;;;;;;;;;4966289;28;19937;-74
2024/03/21 10:55:38;;;;;;;;;;;;;;;;;;4959512;28;19930;-75
2024/03/21 10:58:05;;;;;;;;;;;;;;;;;;4961922;28;19930;-74
2024/03/21 11:00:32;;;;;;;;;;;;;;;;;;4963694;28;19952;-75
2024/03/21 11:02:58;;;;;;;;;;;;;;;;;;4965734;28;19927;-77
2024/03/21 11:05:25;;;;;;;;;;;;;;;;;;4965529;28;19930;-70
2024/03/21 11:07:51;;;;;;;;;;;;;;;;;;4951763;28;20013;-70
2024/03/21 11:10:18;;;;;;;;;;;;;;;;;;4963933;28;19930;-70
2024/03/21 11:12:44;;;;;;;;;;;;;;;;;;4966414;28;19930;-70
2024/03/21 11:15:11;;;;;;;;;;;;;;;;;;4968781;28;19930;-71
2024/03/21 11:17:38;;;;;;;;;;;;;;;;;;4969864;28;20402;-70
2024/03/21 11:20:06;;;;;;;;;;;;;;;;;;4970571;28;20284;-70
2024/03/21 11:22:32;;;;;;;;;;;;;;;;;;4960761;28;20017;-71
2024/03/21 11:24:59;;;;;;;;;;;;;;;;;;4957249;28;20366;-72
2024/03/21 11:27:27;;;;;;;;;;;;;;;;;;4966778;28;19930;-73
2024/03/21 11:29:54;;;;;;;;;;;;;;;;;;4967016;28;19930;-71
2024/03/21 11:32:22;;;;;;;;;;;;;;;;;;4954607;28;20309;-69
2024/03/21 11:34:49;;;;;;;;;;;;;;;;;;4965052;28;19930;-71
2024/03/21 11:37:15;;;;;;;;;;;;;;;;;;4968766;28;20389;-72
2024/03/21 11:39:42;;;;;;;;;;;;;;;;;;4957110;28;19980;-71
2024/03/21 11:42:08;;;;;;;;;;;;;;;;;;4957426;28;19944;-71
2024/03/21 11:44:35;;;;;;;;;;;;;;;;;;4952364;28;19965;-72
2024/03/21 11:47:02;;;;;;;;;;;;;;;;;;4976874;28;19991;-71
2024/03/21 11:49:29;;;;;;;;;;;;;;;;;;4959283;28;19975;-72
2024/03/21 11:51:55;;;;;;;;;;;;;;;;;;4960303;28;19930;-72
2024/03/21 11:54:23;;;;;;;;;;;;;;;;;;4962775;28;19934;-72
2024/03/21 11:56:49;;;;;;;;;;;;;;;;;;4957969;28;19930;-71
2024/03/21 11:59:16;;;;;;;;;;;;;;;;;;4959031;28;19936;-72
2024/03/21 12:01:42;;;;;;;;;;;;;;;;;;4957055;28;19930;-72
2024/03/21 12:04:09;;;;;;;;;;;;;;;;;;4975143;28;19930;-73
2024/03/21 12:06:35;;;;;;;;;;;;;;;;;;4957442;28;19941;-73
2024/03/21 12:09:02;;;;;;;;;;;;;;;;;;4957865;28;19941;-72
2024/03/21 12:11:29;;;;;;;;;;;;;;;;;;4961370;28;19930;-72
2024/03/21 12:13:56;;;;;;;;;;;;;;;;;;4958191;28;20701;-69
2024/03/21 12:16:22;;;;;;;;;;;;;;;;;;4959466;28;19996;-70
2024/03/21 12:18:49;;;;;;;;;;;;;;;;;;4967396;28;20009;-70
2024/03/21 12:21:15;;;;;;;;;;;;;;;;;;4960451;28;20405;-70
2024/03/21 12:23:43;;;;;;;;;;;;;;;;;;4970545;28;19944;-70
2024/03/21 12:26:09;;;;;;;;;;;;;;;;;;4958585;28;19973;-70
2024/03/21 12:28:36;;;;;;;;;;;;;;;;;;4975431;28;19930;-70
2024/03/21 12:31:02;;;;;;;;;;;;;;;;;;5030895;28;19952;-70
2024/03/21 12:33:29;;;;;;;;;;;;;;;;;;4952426;28;19930;-70
2024/03/21 12:35:55;;;;;;;;;;;;;;;;;;4963693;28;20345;-70
2024/03/21 12:38:22;;;;;;;;;;;;;;;;;;4981203;28;19932;-70
2024/03/21 12:40:48;;;;;;;;;;;;;;;;;;4967268;28;19930;-70
2024/03/21 12:43:15;;;;;;;;;;;;;;;;;;4991476;28;20025;-70
2024/03/21 12:45:41;;;;;;;;;;;;;;;;;;5033703;28;19977;-68
2024/03/21 12:48:09;;;;;;;;;;;;;;;;;;4969893;28;19932;-72
2024/03/21 12:50:35;;;;;;;;;;;;;;;;;;4967509;28;19930;-71
2024/03/21 12:53:02;;;;;;;;;;;;;;;;;;4965949;28;20021;-71
2024/03/21 12:55:28;;;;;;;;;;;;;;;;;;4963902;28;19934;-71
2024/03/21 12:57:55;;;;;;;;;;;;;;;;;;4969589;28;20274;-71
2024/03/21 13:00:21;;;;;;;;;;;;;;;;;;4996369;28;19970;-71
2024/03/21 13:02:48;;;;;;;;;;;;;;;;;;4965445;28;19995;-72
2024/03/21 13:05:14;;;;;;;;;;;;;;;;;;5068422;28;19928;-71
2024/03/21 13:07:41;;;;;;;;;;;;;;;;;;4975813;28;20021;-71
2024/03/21 13:10:07;;;;;;;;;;;;;;;;;;5029564;28;20051;-71
2024/03/21 13:12:34;;;;;;;;;;;;;;;;;;4958007;28;19970;-71
2024/03/21 13:15:00;;;;;;;;;;;;;;;;;;4975590;28;20413;-71
2024/03/21 13:17:27;;;;;;;;;;;;;;;;;;4957161;28;19976;-70
2024/03/21 13:19:53;;;;;;;;;;;;;;;;;;4978588;28;19934;-71
2024/03/21 13:22:22;;;;;;;;;;;;;;;;;;4959990;28;19930;-73
2024/03/21 13:24:53;;;;;;;;;;;;;;;;;;4964776;28;19934;-76
2024/03/21 13:27:21;;;;;;;;;;;;;;;;;;4955873;28;19930;-75
2024/03/21 13:29:47;;;;;;;;;;;;;;;;;;4963270;28;19934;-76
2024/03/21 13:32:14;;;;;;;;;;;;;;;;;;4953419;28;19930;-75
2024/03/21 13:34:41;;;;;;;;;;;;;;;;;;4965044;28;19930;-75
2024/03/21 13:37:08;;;;;;;;;;;;;;;;;;4955079;28;19934;-75
2024/03/21 13:39:34;;;;;;;;;;;;;;;;;;4961805;28;20352;-76
2024/03/21 13:42:03;;;;;;;;;;;;;;;;;;4956744;28;19953;-76
2024/03/21 13:44:29;;;;;;;;;;;;;;;;;;4966174;28;19930;-76
2024/03/21 13:46:56;;;;;;;;;;;;;;;;;;4957436;28;19931;-76
2024/03/21 13:49:23;;;;;;;;;;;;;;;;;;4961409;28;20612;-76
2024/03/21 13:51:49;;;;;;;;;;;;;;;;;;4961149;28;19980;-78
2024/03/21 13:54:16;;;;;;;;;;;;;;;;;;4964931;28;20415;-78
2024/03/21 13:56:43;;;;;;;;;;;;;;;;;;4957763;28;20365;-76
2024/03/21 13:59:10;;;;;;;;;;;;;;;;;;4962068;28;19930;-75
2024/03/21 14:01:36;;;;;;;;;;;;;;;;;;4959085;28;19992;-79
2024/03/21 14:04:03;;;;;;;;;;;;;;;;;;4968526;28;19930;-79
2024/03/21 14:06:29;;;;;;;;;;;;;;;;;;4958460;28;20017;-78
2024/03/21 14:08:56;;;;;;;;;;;;;;;;;;4983016;28;19928;-76
2024/03/21 14:11:22;;;;;;;;;;;;;;;;;;4982579;28;20011;-79
2024/03/21 14:13:51;;;;;;;;;;;;;;;;;;4973435;28;19956;-76
2024/03/21 14:16:17;;;;;;;;;;;;;;;;;;4966871;28;19930;-76
2024/03/21 14:18:44;;;;;;;;;;;;;;;;;;4963758;28;19997;-79
2024/03/21 14:21:10;;;;;;;;;;;;;;;;;;4963504;28;19930;-80
2024/03/21 14:23:38;;;;;;;;;;;;;;;;;;4968579;28;19933;-77
2024/03/21 14:26:04;;;;;;;;;;;;;;;;;;4964093;28;20197;-79
2024/03/21 14:28:31;;;;;;;;;;;;;;;;;;4962798;28;19945;-86
2024/03/21 14:30:57;;;;;;;;;;;;;;;;;;4965249;28;19939;-87
2024/03/21 14:33:24;;;;;;;;;;;;;;;;;;4960977;28;19930;-86
2024/03/21 14:35:50;;;;;;;;;;;;;;;;;;4968674;28;19934;-81
2024/03/21 14:38:17;;;;;;;;;;;;;;;;;;4958271;28;20292;-88
2024/03/21 14:40:43;;;;;;;;;;;;;;;;;;4965246;28;19931;-88
2024/03/21 14:43:11;;;;;;;;;;;;;;;;;;4965483;28;19942;-90
2024/03/21 14:45:37;;;;;;;;;;;;;;;;;;4968579;28;19956;-85
2024/03/21 14:48:04;;;;;;;;;;;;;;;;;;4956526;28;19930;-81
2024/03/21 14:50:30;;;;;;;;;;;;;;;;;;4965736;28;19934;-80
2024/03/21 14:52:57;;;;;;;;;;;;;;;;;;4957588;28;20322;-77
2024/03/21 14:55:23;;;;;;;;;;;;;;;;;;4954430;28;19931;-76
2024/03/21 14:57:51;;;;;;;;;;;;;;;;;;4961871;28;19930;-75
2024/03/21 15:00:17;;;;;;;;;;;;;;;;;;4961750;28;19930;-78
2024/03/21 15:02:44;;;;;;;;;;;;;;;;;;4963221;28;19934;-77
2024/03/21 15:05:12;;;;;;;;;;;;;;;;;;4970343;28;19934;-80
2024/03/21 15:07:39;;;;;;;;;;;;;;;;;;4983276;28;19941;-78
2024/03/21 15:10:05;;;;;;;;;;;;;;;;;;4956699;28;19999;-78
2024/03/21 15:12:32;;;;;;;;;;;;;;;;;;4961531;28;19937;-77
2024/03/21 15:14:59;;;;;;;;;;;;;;;;;;4961105;28;19930;-76
2024/03/21 15:17:26;;;;;;;;;;;;;;;;;;4959448;28;20018;-77
2024/03/21 15:19:52;;;;;;;;;;;;;;;;;;4960489;28;20036;-76
2024/03/21 15:22:21;;;;;;;;;;;;;;;;;;4960739;28;20049;-76
2024/03/21 15:24:47;;;;;;;;;;;;;;;;;;4962499;28;19934;-75
2024/03/21 15:27:14;;;;;;;;;;;;;;;;;;4955800;28;19942;-77
2024/03/21 15:29:40;;;;;;;;;;;;;;;;;;4968979;28;19984;-76
2024/03/21 15:32:08;;;;;;;;;;;;;;;;;;4959019;28;19931;-76
2024/03/21 15:34:34;;;;;;;;;;;;;;;;;;4968134;28;19934;-75
2024/03/21 15:37:01;;;;;;;;;;;;;;;;;;4967665;28;19934;-76
2024/03/21 15:39:27;;;;;;;;;;;;;;;;;;4967990;28;20346;-76
2024/03/21 15:41:54;;;;;;;;;;;;;;;;;;4970138;28;19983;-77
2024/03/21 15:44:20;;;;;;;;;;;;;;;;;;4957021;28;19976;-77
2024/03/21 15:46:47;;;;;;;;;;;;;;;;;;4966569;28;19984;-80
2024/03/21 15:49:13;;;;;;;;;;;;;;;;;;4961418;28;19976;-80
2024/03/21 15:51:40;;;;;;;;;;;;;;;;;;4963875;28;19930;-79
2024/03/21 15:54:06;;;;;;;;;;;;;;;;;;4974942;28;19937;-79
2024/03/21 15:56:34;;;;;;;;;;;;;;;;;;4960856;28;20328;-80
2024/03/21 15:59:00;;;;;;;;;;;;;;;;;;4972086;28;19930;-81
2024/03/21 16:01:27;;;;;;;;;;;;;;;;;;4967061;28;20488;-78
2024/03/21 16:03:54;;;;;;;;;;;;;;;;;;4960459;28;19992;-79
2024/03/21 16:06:21;;;;;;;;;;;;;;;;;;4959641;28;20379;-79
2024/03/21 16:08:47;;;;;;;;;;;;;;;;;;4958573;28;19952;-80
2024/03/21 16:11:14;;;;;;;;;;;;;;;;;;4964739;28;20041;-81
2024/03/21 16:13:40;;;;;;;;;;;;;;;;;;4955047;28;19942;-81
2024/03/21 16:16:07;;;;;;;;;;;;;;;;;;4965277;28;19948;-80
2024/03/21 16:18:33;;;;;;;;;;;;;;;;;;4956821;28;19930;-80
2024/03/21 16:21:02;;;;;;;;;;;;;;;;;;5010447;28;20350;-81
2024/03/21 16:23:28;;;;;;;;;;;;;;;;;;4960091;28;20375;-78
2024/03/21 16:25:55;;;;;;;;;;;;;;;;;;4966396;28;20457;-79
2024/03/21 16:28:21;;;;;;;;;;;;;;;;;;4960348;28;20013;-78
2024/03/21 16:30:49;;;;;;;;;;;;;;;;;;4961531;28;19957;-78
2024/03/21 16:33:15;;;;;;;;;;;;;;;;;;4958422;28;19991;-78
2024/03/21 16:35:42;;;;;;;;;;;;;;;;;;4960297;28;19930;-74
2024/03/21 16:38:08;;;;;;;;;;;;;;;;;;4964183;28;20011;-74
2024/03/21 16:40:35;;;;;;;;;;;;;;;;;;4961842;28;20258;-74
2024/03/21 16:43:01;;;;;;;;;;;;;;;;;;4971061;28;20346;-72
2024/03/21 16:45:29;;;;;;;;;;;;;;;;;;4961560;28;19953;-73
2024/03/21 16:47:55;;;;;;;;;;;;;;;;;;4968071;28;20313;-73